Time;durP1;ratioP1;P1;durP2;ratioP2;P2;SDS_P1;SDS_P2;PMS_P1;PMS_P2;Temp;Humidity;BMP_temperature;BMP_pressure;BME280_temperature;BME280_humidity;BME280_pressure;Samples;Min_cycle;Max_cycle;Signal;HPM_P1;HPM_P2
2022/08/04 00:00:30;;;;;;;9.15;5.35;;;26.90;99.90;;;;;;5026005;28;20196;-68
2022/08/04 00:03:08;;;;;;;6.90;5.80;;;26.90;99.90;;;;;;5023945;28;20230;-68
2022/08/04 00:05:44;;;;;;;7.20;5.85;;;26.80;99.90;;;;;;5016300;28;20570;-69
2022/08/04 00:08:28;;;;;;;7.80;5.80;;;26.80;99.90;;;;;;5008877;28;20181;-69
2022/08/04 00:10:57;;;;;;;8.18;6.57;;;26.80;99.90;;;;;;5007855;28;20672;-69
2022/08/04 00:13:25;;;;;;;7.30;5.55;;;26.70;99.90;;;;;;5013396;28;20209;-68
2022/08/04 00:15:52;;;;;;;9.25;6.68;;;26.70;99.90;;;;;;5010965;28;20308;-68
2022/08/04 00:18:25;;;;;;;10.45;6.47;;;26.70;99.90;;;;;;5010886;28;20197;-68
2022/08/04 00:20:56;;;;;;;9.95;6.85;;;26.70;99.90;;;;;;5011166;28;20247;-69
2022/08/04 00:23:25;;;;;;;9.82;6.40;;;26.70;99.90;;;;;;5010971;28;20173;-67
2022/08/04 00:25:51;;;;;;;10.10;6.45;;;26.70;99.90;;;;;;5011293;28;20192;-69
2022/08/04 00:28:17;;;;;;;8.90;6.22;;;26.60;99.90;;;;;;5010598;28;20200;-69
2022/08/04 00:30:42;;;;;;;9.27;6.32;;;26.60;99.90;;;;;;5010668;28;20208;-69
2022/08/04 00:33:08;;;;;;;9.40;6.28;;;26.60;99.90;;;;;;5010970;28;20285;-68
2022/08/04 00:35:35;;;;;;;8.65;5.95;;;26.60;99.90;;;;;;5002013;28;20571;-68
2022/08/04 00:38:01;;;;;;;9.75;6.40;;;26.50;99.90;;;;;;5011040;28;20532;-68
2022/08/04 00:41:04;;;;;;;10.18;6.32;;;26.50;99.90;;;;;;5010293;28;20211;-68
2022/08/04 00:43:49;;;;;;;8.32;6.55;;;26.50;99.90;;;;;;5008541;28;20197;-68
2022/08/04 00:46:48;;;;;;;9.25;6.70;;;26.50;99.90;;;;;;4992983;28;20295;-69
2022/08/04 00:49:23;;;;;;;10.00;6.63;;;26.40;99.90;;;;;;5002964;28;20674;-68
2022/08/04 00:52:06;;;;;;;9.73;6.53;;;26.40;99.90;;;;;;5009784;28;20231;-69
2022/08/04 00:54:50;;;;;;;10.18;6.30;;;26.40;99.90;;;;;;5008304;28;20255;-68
2022/08/04 00:57:41;;;;;;;7.13;6.00;;;26.30;99.90;;;;;;5008225;28;20196;-67
2022/08/04 01:00:10;;;;;;;7.60;6.10;;;26.30;99.90;;;;;;5007467;28;20204;-68
2022/08/04 01:02:48;;;;;;;7.90;6.20;;;26.30;99.90;;;;;;5010636;28;20213;-67
2022/08/04 01:05:28;;;;;;;6.25;5.40;;;26.30;99.90;;;;;;5005815;28;20189;-68
2022/08/04 01:08:10;;;;;;;7.90;6.07;;;26.30;99.90;;;;;;5010124;28;20177;-68
2022/08/04 01:11:12;;;;;;;6.68;5.45;;;26.20;99.90;;;;;;5009069;28;20209;-68
2022/08/04 01:14:13;;;;;;;8.75;6.65;;;26.20;99.90;;;;;;5010259;28;20232;-68
2022/08/04 01:16:48;;;;;;;7.68;5.28;;;26.20;99.90;;;;;;5009670;28;20204;-68
2022/08/04 01:19:52;;;;;;;9.32;6.00;;;26.10;99.90;;;;;;4992566;28;20204;-67
2022/08/04 01:22:31;;;;;;;6.97;5.82;;;26.10;99.90;;;;;;5010699;28;20759;-68
2022/08/04 01:25:47;;;;;;;8.63;5.55;;;26.10;99.90;;;;;;5013569;28;20209;-67
2022/08/04 01:28:43;;;;;;;6.10;4.88;;;26.10;99.90;;;;;;4936968;29;20207;-67
2022/08/04 01:31:32;;;;;;;8.38;5.32;;;26.00;99.90;;;;;;4953247;28;20207;-67
2022/08/04 01:34:03;;;;;;;6.43;5.30;;;26.00;99.90;;;;;;5008009;28;20236;-68
2022/08/04 01:36:32;;;;;;;6.78;5.47;;;26.00;99.90;;;;;;5013477;28;20208;-68
2022/08/04 01:39:39;;;;;;;9.40;6.00;;;26.00;99.90;;;;;;5013704;28;20232;-68
2022/08/04 01:41:45;;;;;;;8.30;5.80;;;25.90;99.90;;;;;;5013085;28;20239;-68
2022/08/04 01:44:13;;;;;;;8.68;5.82;;;25.90;99.90;;;;;;5014222;28;20177;-68
2022/08/04 01:46:39;;;;;;;5.75;5.15;;;25.90;99.90;;;;;;5013452;28;20217;-68
2022/08/04 01:49:06;;;;;;;5.90;5.15;;;25.90;99.90;;;;;;5013107;28;20212;-68
2022/08/04 01:51:36;;;;;;;7.75;5.88;;;25.80;99.90;;;;;;5013313;28;20284;-68
2022/08/04 01:54:02;;;;;;;6.63;5.55;;;25.80;99.90;;;;;;5013764;28;20255;-68
2022/08/04 01:56:29;;;;;;;7.22;5.55;;;25.80;99.90;;;;;;4995346;28;20208;-67
2022/08/04 01:58:56;;;;;;;8.30;5.70;;;25.70;99.90;;;;;;5013551;28;20177;-67
2022/08/04 02:01:22;;;;;;;6.80;5.05;;;25.70;99.90;;;;;;4992371;28;20698;-68
2022/08/04 02:03:48;;;;;;;7.30;5.65;;;25.70;99.90;;;;;;5011876;28;20201;-68
2022/08/04 02:06:55;;;;;;;7.60;5.57;;;25.60;99.90;;;;;;4995577;28;20220;-68
2022/08/04 02:09:44;;;;;;;6.93;5.68;;;25.60;99.90;;;;;;5003294;28;20201;-68
2022/08/04 02:12:24;;;;;;;6.55;5.45;;;25.60;99.90;;;;;;5012330;28;20724;-68
2022/08/04 02:14:55;;;;;;;7.47;5.50;;;25.50;99.90;;;;;;5010861;28;20209;-67
2022/08/04 02:17:23;;;;;;;6.00;5.10;;;25.50;99.90;;;;;;5013391;28;20549;-68
2022/08/04 02:20:08;;;;;;;7.32;5.72;;;25.50;99.90;;;;;;5008167;28;20173;-69
2022/08/04 02:22:41;;;;;;;5.13;4.63;;;25.50;99.90;;;;;;5012801;28;20247;-68
2022/08/04 02:25:09;;;;;;;6.78;4.80;;;25.50;99.90;;;;;;5009816;28;20205;-68
2022/08/04 02:28:02;;;;;;;6.90;5.93;;;25.40;99.90;;;;;;5012470;28;20193;-68
2022/08/04 02:30:37;;;;;;;7.18;5.72;;;25.30;99.90;;;;;;5010516;28;20296;-71
2022/08/04 02:33:06;;;;;;;7.28;4.95;;;25.30;99.90;;;;;;5008410;28;20200;-69
2022/08/04 02:35:36;;;;;;;7.32;5.75;;;25.30;99.90;;;;;;5012287;28;20588;-70
2022/08/04 02:38:29;;;;;;;5.97;5.38;;;25.30;99.90;;;;;;5013133;28;20169;-70
2022/08/04 02:40:59;;;;;;;8.23;5.13;;;25.30;99.90;;;;;;5004265;28;20205;-70
2022/08/04 02:43:26;;;;;;;6.25;4.90;;;25.30;99.90;;;;;;5009981;28;20681;-71
2022/08/04 02:45:55;;;;;;;9.10;5.15;;;25.20;99.90;;;;;;5005146;28;20761;-70
2022/08/04 02:48:24;;;;;;;7.00;5.47;;;25.20;99.90;;;;;;5006711;28;20205;-69
2022/08/04 02:50:51;;;;;;;8.32;5.47;;;25.20;99.90;;;;;;5008257;28;20205;-70
2022/08/04 02:53:20;;;;;;;7.43;4.90;;;25.20;99.90;;;;;;5012034;28;20181;-71
2022/08/04 02:55:47;;;;;;;8.38;5.25;;;25.20;99.90;;;;;;5003241;28;20218;-68
2022/08/04 02:58:18;;;;;;;8.45;5.38;;;25.10;99.90;;;;;;5008011;28;20197;-68
2022/08/04 03:00:45;;;;;;;7.80;5.55;;;25.10;99.90;;;;;;5009377;28;20620;-68
2022/08/04 03:03:31;;;;;;;6.47;5.00;;;25.10;99.90;;;;;;5007994;28;20197;-68
2022/08/04 03:06:10;;;;;;;7.10;5.40;;;25.10;99.90;;;;;;5006599;28;20201;-67
2022/08/04 03:08:58;;;;;;;6.07;5.20;;;25.10;99.90;;;;;;4983562;28;20581;-68
2022/08/04 03:11:57;;;;;;;7.15;5.30;;;25.00;99.90;;;;;;5003477;28;20657;-67
2022/08/04 03:15:10;;;;;;;7.88;5.18;;;25.00;99.90;;;;;;5003308;28;20742;-68
2022/08/04 03:17:58;;;;;;;9.10;5.03;;;24.90;99.90;;;;;;5003674;28;20232;-68
2022/08/04 03:20:36;;;;;;;7.05;5.82;;;25.00;99.90;;;;;;5001088;28;20196;-68
2022/08/04 03:23:30;;;;;;;7.05;5.28;;;25.00;99.90;;;;;;5003558;28;20166;-68
2022/08/04 03:26:14;;;;;;;6.18;5.45;;;25.00;99.90;;;;;;5010273;28;20221;-68
2022/08/04 03:29:05;;;;;;;13.02;5.13;;;24.90;99.90;;;;;;5004850;28;20197;-68
2022/08/04 03:31:46;;;;;;;6.88;5.60;;;24.80;99.90;;;;;;5003902;28;20208;-70
2022/08/04 03:34:56;;;;;;;6.55;5.32;;;24.90;99.90;;;;;;5006994;28;20280;-71
2022/08/04 03:37:46;;;;;;;6.53;5.32;;;24.90;99.90;;;;;;4950636;28;20203;-70
2022/08/04 03:40:31;;;;;;;5.65;5.05;;;24.90;99.90;;;;;;5001197;28;20713;-71
2022/08/04 03:43:09;;;;;;;8.45;5.03;;;25.00;99.90;;;;;;5009372;28;20204;-70
2022/08/04 03:46:20;;;;;;;5.15;4.65;;;24.90;99.90;;;;;;5004132;28;20231;-70
2022/08/04 03:48:56;;;;;;;8.13;5.03;;;25.00;99.90;;;;;;5006978;28;20205;-71
2022/08/04 03:54:41;;;;;;;7.95;5.80;;;25.00;99.90;;;;;;5006875;28;20211;-70
2022/08/04 03:57:45;;;;;;;7.55;5.00;;;25.00;99.90;;;;;;5006271;28;20624;-70
2022/08/04 04:00:18;;;;;;;8.27;5.15;;;25.10;99.90;;;;;;4964760;28;20202;-71
2022/08/04 04:03:17;;;;;;;8.77;5.35;;;25.10;99.90;;;;;;4966125;28;20747;-71
2022/08/04 04:05:49;;;;;;;7.63;5.65;;;25.20;99.90;;;;;;4993217;28;20678;-71
2022/08/04 04:08:41;;;;;;;7.68;4.70;;;26.50;99.90;;;;;;5008064;28;20181;-70
2022/08/04 04:11:21;;;;;;;6.25;5.47;;;27.40;99.90;;;;;;5005181;28;20162;-71
2022/08/04 04:14:05;;;;;;;9.80;4.93;;;27.10;99.90;;;;;;5002800;28;20189;-69
2022/08/04 04:17:20;;;;;;;9.45;5.07;;;28.50;99.90;;;;;;4981414;28;20209;-68
2022/08/04 04:19:53;;;;;;;9.43;6.82;;;29.30;99.90;;;;;;4988376;28;20265;-68
2022/08/04 04:22:30;;;;;;;8.40;7.60;;;29.80;99.90;;;;;;5005179;28;20240;-69
2022/08/04 04:25:22;;;;;;;10.55;5.60;;;30.30;99.90;;;;;;5007810;28;20207;-69
2022/08/04 04:28:16;;;;;;;11.00;6.88;;;30.30;99.90;;;;;;5006292;28;20198;-69
2022/08/04 04:31:00;;;;;;;8.13;5.85;;;30.50;99.90;;;;;;5001855;28;20686;-68
2022/08/04 04:33:57;;;;;;;9.50;5.47;;;30.30;99.90;;;;;;5006553;28;20674;-69
2022/08/04 04:36:58;;;;;;;8.48;5.80;;;28.70;99.90;;;;;;5006235;28;20241;-68
2022/08/04 04:39:35;;;;;;;7.20;6.53;;;27.50;99.90;;;;;;4993593;28;20268;-68
2022/08/04 04:42:25;;;;;;;8.98;6.10;;;27.00;99.90;;;;;;5005733;28;20211;-68
2022/08/04 04:44:50;;;;;;;7.85;6.22;;;27.40;99.90;;;;;;5006664;28;20600;-68
2022/08/04 04:47:31;;;;;;;6.13;5.53;;;29.80;99.90;;;;;;4986906;28;20196;-68
2022/08/04 04:50:22;;;;;;;8.07;5.38;;;31.10;99.90;;;;;;5006616;28;20172;-68
2022/08/04 04:53:03;;;;;;;9.95;5.50;;;32.70;99.90;;;;;;4999038;28;20201;-69
2022/08/04 04:55:38;;;;;;;6.63;5.65;;;34.00;98.90;;;;;;4982430;28;20581;-68
2022/08/04 04:58:04;;;;;;;6.53;5.80;;;34.20;97.20;;;;;;5010083;28;20428;-69
2022/08/04 05:00:51;;;;;;;6.38;4.85;;;34.10;96.10;;;;;;5010233;28;20200;-68
2022/08/04 05:03:47;;;;;;;6.07;5.47;;;33.50;96.70;;;;;;5015396;28;20204;-68
2022/08/04 05:06:26;;;;;;;7.70;5.63;;;34.20;95.80;;;;;;5011175;28;20255;-69
2022/08/04 05:09:15;;;;;;;7.50;6.20;;;34.70;94.30;;;;;;5013263;28;20196;-69
2022/08/04 05:12:11;;;;;;;7.13;5.55;;;34.00;94.10;;;;;;5005840;28;20208;-69
2022/08/04 05:14:48;;;;;;;6.97;5.75;;;33.50;95.10;;;;;;5013833;28;20216;-69
2022/08/04 05:17:33;;;;;;;6.35;5.75;;;34.50;94.60;;;;;;5014482;28;20234;-69
2022/08/04 05:20:09;;;;;;;7.15;6.00;;;35.10;93.60;;;;;;5012334;28;20614;-69
2022/08/04 05:22:58;;;;;;;7.75;5.50;;;34.60;92.80;;;;;;5014038;28;20227;-69
2022/08/04 05:25:36;;;;;;;9.85;5.78;;;35.40;92.80;;;;;;5013130;28;20204;-69
2022/08/04 05:28:11;;;;;;;7.88;5.65;;;35.70;91.90;;;;;;5011466;28;20243;-70
2022/08/04 05:30:48;;;;;;;7.45;5.57;;;35.10;91.20;;;;;;5013554;28;20247;-69
2022/08/04 05:33:26;;;;;;;6.03;5.53;;;35.30;91.80;;;;;;5011881;28;20264;-69
2022/08/04 05:35:57;;;;;;;7.43;6.72;;;35.80;91.10;;;;;;5013714;28;20211;-69
2022/08/04 05:38:33;;;;;;;7.65;5.47;;;35.90;90.00;;;;;;5013177;28;20189;-69
2022/08/04 05:41:00;;;;;;;7.68;6.03;;;35.60;90.20;;;;;;5014552;28;20589;-70
2022/08/04 05:43:26;;;;;;;8.65;5.47;;;35.70;88.20;;;;;;5013463;28;20287;-69
2022/08/04 05:45:53;;;;;;;7.65;5.43;;;34.70;88.60;;;;;;5013529;28;20307;-69
2022/08/04 05:48:19;;;;;;;7.82;5.28;;;33.80;89.80;;;;;;5013108;28;20669;-70
2022/08/04 05:50:46;;;;;;;6.45;5.45;;;34.20;89.80;;;;;;5013157;28;20204;-68
2022/08/04 05:53:13;;;;;;;8.15;5.07;;;34.00;88.50;;;;;;5013299;28;20200;-70
2022/08/04 05:55:39;;;;;;;6.38;5.25;;;34.20;88.50;;;;;;5026365;23;20223;-74
2022/08/04 05:58:05;;;;;;;5.72;4.90;;;35.20;88.20;;;;;;4994134;28;20669;-74
2022/08/04 06:00:33;;;;;;;10.48;5.28;;;35.60;87.10;;;;;;4990510;28;20339;-74
2022/08/04 06:03:00;;;;;;;8.15;4.95;;;36.80;84.90;;;;;;4989392;28;20208;-74
2022/08/04 06:05:27;;;;;;;6.00;5.00;;;36.10;82.40;;;;;;4992635;28;20174;-73
2022/08/04 06:07:53;;;;;;;7.95;5.47;;;36.00;82.00;;;;;;4987853;28;20232;-74
2022/08/04 06:10:19;;;;;;;9.43;5.50;;;35.50;83.20;;;;;;4983246;28;20621;-74
2022/08/04 06:13:08;;;;;;;8.38;4.88;;;36.00;82.00;;;;;;4993511;28;20220;-74
2022/08/04 06:15:38;;;;;;;7.40;4.80;;;37.00;81.00;;;;;;4989636;28;20208;-74
2022/08/04 06:18:06;;;;;;;6.05;5.43;;;37.80;79.00;;;;;;4967834;28;20197;-72
2022/08/04 06:20:37;;;;;;;7.07;5.10;;;38.50;77.50;;;;;;4986354;28;20217;-74
2022/08/04 06:23:09;;;;;;;10.68;7.88;;;39.20;74.80;;;;;;4991050;28;20172;-73
2022/08/04 06:25:50;;;;;;;7.30;5.22;;;37.80;76.00;;;;;;4985781;28;20209;-74
2022/08/04 06:28:18;;;;;;;6.80;5.03;;;37.50;76.00;;;;;;4985687;28;20209;-74
2022/08/04 06:30:46;;;;;;;7.22;5.85;;;38.60;74.80;;;;;;4992985;28;20205;-75
2022/08/04 06:33:25;;;;;;;8.18;5.78;;;39.90;73.50;;;;;;4969635;28;20670;-75
2022/08/04 06:35:54;;;;;;;7.00;5.97;;;40.60;71.10;;;;;;4989382;28;20205;-75
2022/08/04 06:38:22;;;;;;;6.80;6.13;;;40.80;69.40;;;;;;4987545;28;20173;-75
2022/08/04 06:40:48;;;;;;;8.93;6.55;;;40.30;69.20;;;;;;4987424;28;20205;-74
2022/08/04 06:43:14;;;;;;;6.20;5.60;;;39.60;68.90;;;;;;4984739;28;20610;-73
2022/08/04 06:45:42;;;;;;;6.18;5.60;;;39.40;69.60;;;;;;4987399;28;20213;-74
2022/08/04 06:48:10;;;;;;;9.35;6.05;;;39.30;69.90;;;;;;4975090;28;20205;-74
2022/08/04 06:50:36;;;;;;;6.45;5.85;;;39.90;69.60;;;;;;4986522;28;20213;-74
2022/08/04 06:53:03;;;;;;;7.50;6.55;;;41.40;68.10;;;;;;4984846;28;20176;-74
2022/08/04 06:55:29;;;;;;;8.25;5.68;;;40.90;67.00;;;;;;4970992;28;20212;-74
2022/08/04 06:57:56;;;;;;;8.75;5.97;;;40.50;66.60;;;;;;4975016;28;20267;-74
2022/08/04 07:00:24;;;;;;;7.07;5.63;;;38.90;68.50;;;;;;4969202;28;20201;-73
2022/08/04 07:02:51;;;;;;;20.80;7.18;;;39.90;69.00;;;;;;4970943;28;20201;-74
2022/08/04 07:05:18;;;;;;;7.07;6.00;;;40.80;67.90;;;;;;4973996;28;20177;-74
2022/08/04 07:07:45;;;;;;;9.07;6.00;;;41.10;66.80;;;;;;4987232;28;20183;-73
2022/08/04 07:10:11;;;;;;;6.65;5.45;;;41.70;65.60;;;;;;4971615;28;20600;-73
2022/08/04 07:12:44;;;;;;;8.05;5.40;;;41.80;65.60;;;;;;4971459;28;20252;-75
2022/08/04 07:15:10;;;;;;;7.18;4.90;;;41.00;64.20;;;;;;4985541;28;20287;-75
2022/08/04 07:17:36;;;;;;;8.75;5.88;;;41.90;65.00;;;;;;4984080;28;20218;-75
2022/08/04 07:20:04;;;;;;;6.15;4.90;;;41.80;63.80;;;;;;4984373;28;20173;-72
2022/08/04 07:22:30;;;;;;;5.55;5.05;;;41.40;63.00;;;;;;4988182;28;20202;-73
2022/08/04 07:24:56;;;;;;;6.80;5.07;;;41.10;64.00;;;;;;4986977;28;20260;-73
2022/08/04 07:27:23;;;;;;;6.55;5.30;;;40.70;64.30;;;;;;4981192;28;20728;-74
2022/08/04 07:29:49;;;;;;;9.68;5.05;;;40.70;65.00;;;;;;4990051;28;20287;-75
2022/08/04 07:32:17;;;;;;;10.40;5.72;;;42.00;64.30;;;;;;4988479;28;20268;-74
2022/08/04 07:34:43;;;;;;;6.03;5.30;;;42.60;62.60;;;;;;4968140;28;20560;-74
2022/08/04 07:37:09;;;;;;;6.68;5.35;;;42.70;61.40;;;;;;4984336;28;20209;-73
2022/08/04 07:39:35;;;;;;;6.03;4.55;;;42.20;61.10;;;;;;4987078;28;20645;-73
2022/08/04 07:42:03;;;;;;;6.20;5.60;;;42.30;61.70;;;;;;4986587;28;20197;-74
2022/08/04 07:44:33;;;;;;;6.97;4.95;;;43.20;61.00;;;;;;4985399;28;20185;-74
2022/08/04 07:47:01;;;;;;;6.10;5.25;;;42.20;60.80;;;;;;4990367;28;20181;-74
2022/08/04 07:49:27;;;;;;;5.53;4.85;;;42.70;61.40;;;;;;4971178;28;20256;-74
2022/08/04 07:51:53;;;;;;;6.07;5.47;;;43.10;60.60;;;;;;4985405;28;20201;-74
2022/08/04 07:54:19;;;;;;;6.72;5.25;;;42.30;59.90;;;;;;4966043;28;20201;-74
2022/08/04 07:56:47;;;;;;;5.13;4.72;;;42.00;60.70;;;;;;4988305;28;20709;-73
2022/08/04 07:59:14;;;;;;;7.15;5.13;;;41.30;60.00;;;;;;4984421;28;20181;-74
2022/08/04 08:01:40;;;;;;;7.35;5.10;;;41.90;60.20;;;;;;4986696;28;20189;-74
2022/08/04 08:04:07;;;;;;;7.55;5.55;;;41.10;60.40;;;;;;4986965;28;20757;-74
2022/08/04 08:06:35;;;;;;;6.30;4.72;;;41.80;61.20;;;;;;4985816;28;20309;-73
2022/08/04 08:09:06;;;;;;;5.03;4.53;;;41.20;60.40;;;;;;4983398;28;20691;-73
2022/08/04 08:11:32;;;;;;;6.00;4.63;;;42.30;60.20;;;;;;4984653;28;20776;-73
2022/08/04 08:13:58;;;;;;;5.38;4.63;;;42.20;59.30;;;;;;4988833;28;20260;-73
2022/08/04 08:16:25;;;;;;;5.93;5.28;;;42.10;59.60;;;;;;4983562;28;20301;-73
2022/08/04 08:18:51;;;;;;;6.85;5.50;;;42.90;59.50;;;;;;4983211;28;20659;-74
2022/08/04 08:21:19;;;;;;;10.75;4.75;;;42.70;58.70;;;;;;4984588;28;20220;-74
2022/08/04 08:23:45;;;;;;;8.00;4.97;;;43.20;59.40;;;;;;4987016;28;20251;-75
2022/08/04 08:26:11;;;;;;;4.78;4.38;;;44.00;59.10;;;;;;4983162;28;20193;-74
2022/08/04 08:28:37;;;;;;;4.82;4.43;;;44.00;58.10;;;;;;4985090;28;20181;-74
2022/08/04 08:31:02;;;;;;;5.65;5.10;;;43.80;57.80;;;;;;4989233;28;20208;-74
2022/08/04 08:33:28;;;;;;;4.70;4.30;;;42.60;57.90;;;;;;4966323;28;20305;-74
2022/08/04 08:36:08;;;;;;;7.30;4.82;;;41.60;58.90;;;;;;4979305;28;20271;-74
2022/08/04 08:38:53;;;;;;;7.85;5.38;;;40.60;61.10;;;;;;4987384;28;20225;-74
2022/08/04 08:41:49;;;;;;;6.72;5.05;;;40.90;60.90;;;;;;4984583;28;20175;-73
2022/08/04 08:44:47;;;;;;;4.72;3.97;;;41.30;60.90;;;;;;4983050;28;20705;-73
2022/08/04 08:47:37;;;;;;;6.18;4.25;;;41.40;59.80;;;;;;4988368;28;20642;-73
2022/08/04 08:50:26;;;;;;;9.15;4.47;;;40.80;61.20;;;;;;4985176;28;20174;-73
2022/08/04 08:53:15;;;;;;;4.57;3.70;;;40.80;60.40;;;;;;4973955;28;20209;-73
2022/08/04 08:55:58;;;;;;;9.75;4.15;;;40.50;60.30;;;;;;4988487;28;20220;-74
2022/08/04 08:58:46;;;;;;;5.80;3.35;;;41.00;61.40;;;;;;4984385;28;20229;-74
2022/08/04 09:01:24;;;;;;;4.10;3.70;;;40.50;60.30;;;;;;4986635;28;20201;-74
2022/08/04 09:03:59;;;;;;;8.30;3.88;;;40.80;60.50;;;;;;4969740;28;20201;-74
2022/08/04 09:06:39;;;;;;;4.70;3.58;;;40.50;60.20;;;;;;4970756;28;20304;-74
2022/08/04 09:09:38;;;;;;;4.85;4.07;;;39.90;60.60;;;;;;4983017;28;20300;-74
2022/08/04 09:12:17;;;;;;;13.43;4.93;;;39.50;62.70;;;;;;4988645;28;20280;-75
2022/08/04 09:14:47;;;;;;;10.02;4.18;;;40.50;61.70;;;;;;4986814;28;20250;-74
2022/08/04 09:17:22;;;;;;;5.20;3.80;;;40.80;60.60;;;;;;4983641;28;20196;-74
2022/08/04 09:19:58;;;;;;;6.57;4.25;;;40.10;60.40;;;;;;4986662;28;20177;-73
2022/08/04 09:22:49;;;;;;;4.88;3.85;;;39.60;61.90;;;;;;4986861;28;20709;-73
2022/08/04 09:25:24;;;;;;;4.38;3.55;;;40.40;62.50;;;;;;4986451;28;20213;-75
2022/08/04 09:27:57;;;;;;;5.97;4.10;;;40.90;59.60;;;;;;4973636;28;20288;-73
2022/08/04 09:30:38;;;;;;;4.47;3.60;;;39.60;59.80;;;;;;4988500;28;20318;-73
2022/08/04 09:33:35;;;;;;;4.70;3.85;;;39.50;60.70;;;;;;4984441;28;20204;-73
2022/08/04 09:36:14;;;;;;;10.27;4.72;;;39.60;62.60;;;;;;4964725;28;20214;-74
2022/08/04 09:38:45;;;;;;;3.88;3.58;;;40.00;63.00;;;;;;4987881;28;20213;-74
2022/08/04 09:41:34;;;;;;;4.00;3.53;;;39.30;61.60;;;;;;4982736;28;20189;-74
2022/08/04 09:44:20;;;;;;;3.60;3.30;;;38.80;61.80;;;;;;4986252;28;20169;-74
2022/08/04 09:47:02;;;;;;;4.28;3.60;;;38.80;62.40;;;;;;4976621;28;20296;-74
2022/08/04 09:49:51;;;;;;;5.60;3.85;;;38.40;62.40;;;;;;4970559;28;20205;-73
2022/08/04 09:52:49;;;;;;;4.63;3.90;;;37.90;64.00;;;;;;4990525;28;20679;-74
2022/08/04 09:55:37;;;;;;;6.78;4.75;;;37.00;66.10;;;;;;4992126;28;20252;-74
2022/08/04 09:58:06;;;;;;;7.93;4.10;;;37.50;66.40;;;;;;4988280;28;20209;-73
2022/08/04 10:00:42;;;;;;;4.10;3.67;;;37.50;66.70;;;;;;4988329;28;20736;-74
2022/08/04 10:03:11;;;;;;;8.00;4.30;;;37.70;66.40;;;;;;4985886;28;20226;-75
2022/08/04 10:06:06;;;;;;;3.80;3.50;;;38.30;65.70;;;;;;4989839;28;20222;-74
2022/08/04 10:08:55;;;;;;;3.75;3.42;;;38.10;65.40;;;;;;4985593;28;20249;-75
2022/08/04 10:11:22;;;;;;;3.92;3.20;;;38.10;65.20;;;;;;4985576;28;20658;-74
2022/08/04 10:13:59;;;;;;;3.65;3.15;;;38.30;64.60;;;;;;4989714;28;20170;-74
2022/08/04 10:16:52;;;;;;;5.22;3.80;;;37.80;64.30;;;;;;4985787;28;20216;-75
2022/08/04 10:19:30;;;;;;;3.53;3.08;;;37.90;64.60;;;;;;4985089;28;20202;-74
2022/08/04 10:22:11;;;;;;;3.95;3.17;;;37.70;65.30;;;;;;4987301;28;20740;-75
2022/08/04 10:24:48;;;;;;;8.98;3.08;;;37.60;65.50;;;;;;4985917;28;20202;-74
2022/08/04 10:27:27;;;;;;;3.50;3.20;;;37.20;65.20;;;;;;4972195;28;20205;-74
2022/08/04 10:30:10;;;;;;;6.07;4.53;;;37.90;64.80;;;;;;4988111;28;20224;-75
2022/08/04 10:33:07;;;;;;;5.28;3.35;;;38.50;63.90;;;;;;4972399;28;20609;-74
2022/08/04 10:36:00;;;;;;;3.83;2.88;;;39.10;63.30;;;;;;4984278;28;20221;-74
2022/08/04 10:38:44;;;;;;;3.22;3.03;;;37.60;64.40;;;;;;4985811;28;20181;-74
2022/08/04 10:41:55;;;;;;;6.55;3.10;;;37.30;65.30;;;;;;4986412;28;20256;-74
2022/08/04 10:44:36;;;;;;;4.65;3.72;;;37.40;65.10;;;;;;4909569;28;20202;-74
2022/08/04 10:47:15;;;;;;;5.00;3.00;;;37.80;65.20;;;;;;4975560;28;20648;-75
2022/08/04 10:49:45;;;;;;;4.95;3.53;;;37.50;65.10;;;;;;4987743;28;21654;-75
2022/08/04 10:52:25;;;;;;;4.70;4.25;;;37.50;65.60;;;;;;4984408;28;20681;-74
2022/08/04 10:55:02;;;;;;;4.72;3.08;;;38.00;65.80;;;;;;4987918;28;20717;-75
2022/08/04 10:57:50;;;;;;;4.88;3.88;;;37.30;65.80;;;;;;4987166;28;20679;-74
2022/08/04 11:00:28;;;;;;;4.80;2.90;;;37.20;66.30;;;;;;4987347;28;20211;-75
2022/08/04 11:03:20;;;;;;;10.02;3.65;;;37.30;66.60;;;;;;4985292;28;20214;-75
2022/08/04 11:05:57;;;;;;;4.93;3.40;;;37.50;65.90;;;;;;4987096;28;20197;-74
2022/08/04 11:08:33;;;;;;;4.03;3.60;;;37.40;65.90;;;;;;4984046;28;20178;-74
2022/08/04 11:11:31;;;;;;;4.28;3.63;;;36.70;66.50;;;;;;4985727;28;20171;-74
2022/08/04 11:14:03;;;;;;;4.97;3.40;;;37.00;67.00;;;;;;4983106;28;20221;-75
2022/08/04 11:16:41;;;;;;;4.38;3.38;;;37.60;65.80;;;;;;4986348;28;20695;-74
2022/08/04 11:19:42;;;;;;;4.30;3.45;;;36.90;65.50;;;;;;4985995;28;20235;-74
2022/08/04 11:22:22;;;;;;;4.32;3.97;;;36.60;65.80;;;;;;4912714;29;20200;-73
2022/08/04 11:25:12;;;;;;;4.05;3.50;;;36.60;66.50;;;;;;4978516;28;20197;-73
2022/08/04 11:27:56;;;;;;;5.10;3.83;;;36.30;66.80;;;;;;4983280;28;20569;-74
2022/08/04 11:30:28;;;;;;;5.50;3.67;;;36.50;67.30;;;;;;4987791;28;20197;-74
2022/08/04 11:33:19;;;;;;;9.68;3.83;;;36.80;66.90;;;;;;4974294;28;20693;-75
2022/08/04 11:36:08;;;;;;;3.95;3.53;;;36.60;67.60;;;;;;4984512;28;20220;-75
2022/08/04 11:38:47;;;;;;;3.58;3.00;;;37.00;67.30;;;;;;4988415;28;20672;-75
2022/08/04 11:41:20;;;;;;;4.72;3.45;;;37.30;66.30;;;;;;4985253;28;20630;-75
2022/08/04 11:43:57;;;;;;;4.70;3.53;;;37.00;66.50;;;;;;4984443;28;20204;-75
2022/08/04 11:46:31;;;;;;;4.40;3.15;;;37.10;66.30;;;;;;4964050;28;20206;-75
2022/08/04 11:49:10;;;;;;;6.03;3.60;;;37.30;65.90;;;;;;4988592;28;20209;-75
2022/08/04 11:51:38;;;;;;;6.72;3.80;;;37.00;66.00;;;;;;4984560;28;20225;-75
2022/08/04 11:54:04;;;;;;;4.90;3.03;;;37.20;65.80;;;;;;4984264;28;20212;-74
2022/08/04 11:56:30;;;;;;;3.95;3.65;;;37.60;65.30;;;;;;4970409;28;20779;-75
2022/08/04 11:58:57;;;;;;;3.60;3.30;;;37.80;64.50;;;;;;5037634;23;20223;-71
2022/08/04 12:01:47;;;;;;;5.38;2.85;;;37.90;64.60;;;;;;5019992;28;20708;-69
2022/08/04 12:04:38;;;;;;;5.20;3.08;;;37.50;62.70;;;;;;5022920;28;20223;-69
2022/08/04 12:07:13;;;;;;;3.10;2.80;;;36.90;63.60;;;;;;5012375;28;20196;-69
2022/08/04 12:09:48;;;;;;;8.65;3.33;;;36.50;64.40;;;;;;5000548;28;20227;-69
2022/08/04 12:12:24;;;;;;;4.13;2.67;;;36.80;64.80;;;;;;5002745;28;20196;-69
2022/08/04 12:15:17;;;;;;;4.28;2.97;;;37.10;64.30;;;;;;5003975;28;20275;-70
2022/08/04 12:17:58;;;;;;;3.25;2.90;;;36.90;63.80;;;;;;5000322;28;20205;-69
2022/08/04 12:20:27;;;;;;;4.95;2.88;;;36.70;64.70;;;;;;5000041;28;20174;-69
2022/08/04 12:22:56;;;;;;;3.00;2.80;;;36.90;64.20;;;;;;5001412;28;20255;-69
2022/08/04 12:25:40;;;;;;;4.72;3.00;;;36.70;64.50;;;;;;5001566;28;20200;-68
2022/08/04 12:28:15;;;;;;;3.83;2.80;;;36.80;64.30;;;;;;5001801;28;20215;-69
2022/08/04 12:30:50;;;;;;;3.95;2.80;;;37.00;64.80;;;;;;5002254;28;20681;-69
2022/08/04 12:33:57;;;;;;;4.18;3.10;;;37.20;64.20;;;;;;5001675;28;20208;-69
2022/08/04 12:36:36;;;;;;;3.25;2.70;;;36.90;63.50;;;;;;4965423;28;20322;-68
2022/08/04 12:39:15;;;;;;;3.28;2.97;;;36.70;64.10;;;;;;4982234;28;20566;-69
2022/08/04 12:42:06;;;;;;;4.93;3.40;;;36.40;64.70;;;;;;5000581;28;21011;-68
2022/08/04 12:44:37;;;;;;;7.85;3.05;;;36.30;65.30;;;;;;4999612;28;20205;-69
2022/08/04 12:47:11;;;;;;;3.22;3.00;;;36.40;65.70;;;;;;5003068;28;20276;-69
2022/08/04 12:49:40;;;;;;;5.53;3.00;;;36.40;65.30;;;;;;5000881;28;20610;-69
2022/08/04 12:52:07;;;;;;;6.63;3.30;;;36.20;64.90;;;;;;4999856;28;20281;-68
2022/08/04 12:54:36;;;;;;;3.35;3.05;;;36.20;64.90;;;;;;5002522;28;20248;-68
2022/08/04 12:57:04;;;;;;;4.95;2.78;;;36.20;65.50;;;;;;4999327;28;20213;-69
2022/08/04 12:59:37;;;;;;;3.75;2.65;;;36.10;65.30;;;;;;4989406;28;20305;-68
2022/08/04 13:02:04;;;;;;;3.15;2.95;;;36.00;65.30;;;;;;5000757;28;20181;-69
2022/08/04 13:04:32;;;;;;;5.25;2.42;;;36.20;64.40;;;;;;4992599;28;20224;-69
2022/08/04 13:07:09;;;;;;;2.92;2.65;;;36.40;62.60;;;;;;4987015;28;20414;-70
2022/08/04 13:09:37;;;;;;;4.13;2.70;;;36.40;61.90;;;;;;4999170;28;20689;-70
2022/08/04 13:12:11;;;;;;;2.80;2.53;;;36.60;62.20;;;;;;5001882;28;20200;-69
2022/08/04 13:14:43;;;;;;;3.00;2.58;;;36.90;62.30;;;;;;5001922;28;20232;-69
2022/08/04 13:17:09;;;;;;;6.28;3.08;;;37.00;61.70;;;;;;5001584;28;20173;-70
2022/08/04 13:19:36;;;;;;;4.13;2.50;;;37.20;61.50;;;;;;5005957;28;20220;-70
2022/08/04 13:22:03;;;;;;;2.70;2.50;;;37.20;61.00;;;;;;5003157;28;20208;-69
2022/08/04 13:24:29;;;;;;;4.63;2.85;;;37.20;61.30;;;;;;5005065;28;20201;-69
2022/08/04 13:27:07;;;;;;;5.93;2.45;;;37.20;61.30;;;;;;5002244;28;20300;-70
2022/08/04 13:29:38;;;;;;;5.60;2.35;;;37.00;60.60;;;;;;4995732;28;20207;-69
2022/08/04 13:32:05;;;;;;;4.35;2.60;;;36.70;60.60;;;;;;5002931;28;20563;-70
2022/08/04 13:34:33;;;;;;;4.60;3.33;;;36.70;61.70;;;;;;5002975;28;20197;-70
2022/08/04 13:37:00;;;;;;;3.17;2.78;;;36.90;62.50;;;;;;5005334;28;20212;-69
2022/08/04 13:39:27;;;;;;;3.10;2.72;;;37.00;62.20;;;;;;5003383;28;20231;-69